• Join FlightAware (Why Join?)
  • Login
  • US Flag 
08:38PM EST


 

Airport Tracker/Info


-or-


 

Live Flight TrackerFlight Track Log ✈ ACA831 ✈ 16-Aug-2013 ✈ CYUL - CYYZ

Flight Track Log - Related Links

Times and Time Zones

All times are in EDT time to prevent confusion due to time zone crossing. See the ACA831 flight status page for this flight to view local times or setup timezone preferences in your user account.

Time Position Orientation Groundspeed Altitude Reporting Facility
EDT Latitude Longitude Course Direction KTS MPH feet Rate Location/Type
04:46PM 45.4750 -73.7190 270° West 70 81  Level FlightAware
04:46PM 45.4690 -73.7270 223° Southwest 145 167 1,200 Level FlightAware
04:46PM 45.4610 -73.7370 221° Southwest 155 178 600 3,300 Climbing FlightAware
04:47PM 45.4460 -73.7550 220° Southwest 171 197 2,100 2,820 Climbing FlightAware
04:47PM 45.4320 -73.7710 219° Southwest 206 237 2,900 2,700 Climbing FlightAware
04:47PM 45.4200 -73.7850 219° Southwest 220 253 3,700 3,360 Climbing FlightAware
04:47PM 45.4140 -73.7970 235° Southwest 234 269 4,200 3,360 Climbing FlightAware
04:48PM 45.4100 -73.8190 255° West 244 281 5,100 4,080 Climbing FlightAware
04:48PM 45.4090 -73.8370 265° West 250 288 5,900 4,920 Climbing FlightAware
04:48PM 45.4100 -73.8780 272° West 253 291 8,000 4,920 Climbing FlightAware
04:48PM 45.4110 -73.9130 272° West 259 298 9,600 4,320 Climbing FlightAware
04:49PM 45.4120 -73.9740 271° West 274 315 12,000 3,300 Climbing FlightAware
04:50PM 45.4130 -74.0440 271° West 321 369 13,500 2,820 Climbing FlightAware
04:50PM 45.4130 -74.1060 270° West 339 390 15,100 2,640 Climbing FlightAware
04:51PM 45.4140 -74.1860 271° West 336 387 16,400 3,000 Climbing FlightAware
04:51PM 45.4150 -74.2770 271° West 352 405 18,900 3,600 Climbing FlightAware
04:52PM 45.4160 -74.3460 271° West 362 417 20,600 3,420 Climbing FlightAware
04:53PM 45.4130 -74.4440 268° West 373 429 22,900 3,360 Climbing FlightAware
04:53PM 45.4020 -74.5220 259° West 382 440 24,700 3,300 Climbing FlightAware
04:54PM 45.3850 -74.6160 256° West 382 440 26,800 3,060 Climbing FlightAware
04:54PM 45.3710 -74.7040 257° West 384 442 28,500 2,700 Climbing FlightAware
04:55PM 45.3570 -74.7830 256° West 389 448 29,900 3,000 Climbing FlightAware
04:55PM 45.3440 -74.8610 257° West 381 438 31,700 3,000 Climbing FlightAware
04:56PM 45.3280 -74.9520 256° West 376 433 33,400 1,860 Climbing FlightAware
04:57PM 45.3140 -75.0370 257° West 376 433 34,000 480 Climbing FlightAware
04:57PM 45.3000 -75.1170 256° West 375 432 34,000  Level FlightAware
04:58PM 45.2860 -75.1990 256° West 376 433 34,000  Level FlightAware
04:58PM 45.2700 -75.2900 256° West 378 435 34,000  Level FlightAware
04:59PM 45.2560 -75.3700 256° West 380 437 34,000  Level FlightAware
05:00PM 45.2400 -75.4600 256° West 382 440 34,000  Level FlightAware
05:00PM 45.2260 -75.5400 256° West 383 441 34,000  Level FlightAware
05:01PM 45.2100 -75.6300 256° West 384 442 34,000  Level FlightAware
05:01PM 45.1920 -75.7310 256° West 384 442 34,000  Level FlightAware
05:02PM 45.1740 -75.8280 255° West 384 442 34,000  Level FlightAware
05:03PM 45.1590 -75.9100 255° West 383 441 34,000  Level FlightAware
05:03PM 45.1450 -75.9880 256° West 384 442 34,000  Level FlightAware
05:04PM 45.1280 -76.0830 256° West 383 441 34,000  Level FlightAware
05:05PM 45.1090 -76.1820 255° West 382 440 34,000  Level FlightAware
05:05PM 45.0850 -76.2690 249° West 387 445 34,000  Level FlightAware
05:06PM 45.0570 -76.3420 242° Southwest 389 448 34,000  Level FlightAware
05:06PM 45.0230 -76.4270 241° Southwest 390 449 34,000  Level FlightAware
05:07PM 44.9910 -76.5090 241° Southwest 390 449 34,000  Level FlightAware
05:08PM 44.9540 -76.6000 240° Southwest 391 450 34,000  Level FlightAware
05:08PM 44.9270 -76.6700 241° Southwest 393 452 34,000  Level FlightAware
05:09PM 44.8940 -76.7520 240° Southwest 394 453 34,000  Level FlightAware
05:09PM 44.8580 -76.8420 241° Southwest 394 453 34,000  Level FlightAware
05:10PM 44.8290 -76.9140 240° Southwest 396 456 34,000  Level FlightAware
05:11PM 44.7990 -76.9890 241° Southwest 397 457 34,000  Level FlightAware
05:11PM 44.7590 -77.0860 240° Southwest 396 456 34,000  Level FlightAware
05:12PM 44.7260 -77.1680 240° Southwest 396 456 34,000  Level FlightAware
05:13PM 44.6920 -77.2520 240° Southwest 396 456 34,000 -180 Level FlightAware
05:13PM 44.6580 -77.3370 241° Southwest 390 449 33,800 -480 Descending FlightAware
05:14PM 44.6290 -77.4070 240° Southwest 378 435 33,500 -960 Descending FlightAware
05:14PM 44.5920 -77.4960 240° Southwest 373 429 32,600 -1,620 Descending FlightAware
05:15PM 44.5680 -77.5560 241° Southwest 364 419 31,700 -1,980 Descending FlightAware
05:16PM 44.5350 -77.6370 240° Southwest 358 412 30,400 -1,980 Descending FlightAware
05:16PM 44.5060 -77.7060 240° Southwest 354 407 29,300 -1,620 Descending FlightAware
05:17PM 44.4840 -77.7580 239° Southwest 351 404 28,500 -1,920 Descending FlightAware
05:17PM 44.4560 -77.8280 241° Southwest 350 403 27,300 -2,160 Descending FlightAware
05:18PM 44.4260 -77.9000 240° Southwest 347 399 26,100 -1,980 Descending FlightAware
05:18PM 44.3910 -77.9820 239° Southwest 345 397 24,800 -1,980 Descending FlightAware
05:19PM 44.3670 -78.0390 240° Southwest 343 395 23,800 -1,980 Descending FlightAware
05:20PM 44.3400 -78.1030 239° Southwest 342 394 22,700 -1,920 Descending FlightAware
05:20PM 44.3070 -78.1830 240° Southwest 344 396 21,400 -1,980 Descending FlightAware
05:21PM 44.2750 -78.2600 240° Southwest 343 395 20,100 -1,920 Descending FlightAware
05:21PM 44.2460 -78.3260 238° Southwest 343 395 19,000 -1,860 Descending FlightAware
05:22PM 44.2140 -78.4020 240° Southwest 342 394 17,800 -1,620 Descending FlightAware
05:23PM 44.1880 -78.4680 241° Southwest 334 384 17,000 -1,080 Descending FlightAware
05:23PM 44.1650 -78.5350 244° Southwest 325 374 16,600 -540 Descending FlightAware
05:24PM 44.1460 -78.5940 246° West 317 365 16,400 -600 Descending FlightAware
05:24PM 44.1230 -78.6650 246° West 307 353 15,900 -1,200 Descending FlightAware
05:25PM 44.1040 -78.7230 245° Southwest 304 350 15,000 -1,680 Descending FlightAware
05:26PM 44.0830 -78.7900 246° West 305 351 14,000 -1,500 Descending FlightAware
05:26PM 44.0650 -78.8440 245° Southwest 303 349 13,300 -2,100 Descending FlightAware
05:27PM 44.0430 -78.9120 246° West 325 374 11,600 -2,400 Descending FlightAware
05:27PM 44.0190 -78.9830 245° Southwest 324 373 10,500 -1,680 Descending FlightAware
05:28PM 44.0010 -79.0370 245° Southwest 298 343 9,800 -1,680 Descending FlightAware
05:28PM 43.9900 -79.0710 246° West 287 330 9,100 -2,400 Descending FlightAware
05:29PM 43.9800 -79.1050 248° West 277 319 8,200 -2,400 Descending FlightAware
05:29PM 43.9750 -79.1400 259° West 271 312 7,500 -2,040 Descending FlightAware
05:29PM 43.9690 -79.1720 255° West 273 314 6,900 -1,500 Descending FlightAware
05:30PM 43.9630 -79.2150 259° West 266 306 6,400 -1,200 Descending FlightAware
05:30PM 43.9560 -79.2390 248° West 265 305 6,100 -1,200 Descending FlightAware
05:30PM 43.9420 -79.2650 233° Southwest 259 298 5,700 -780 Descending FlightAware
05:31PM 43.9290 -79.2940 238° Southwest 241 277 5,600 -360 Descending FlightAware
05:31PM 43.9140 -79.3150 225° Southwest 229 264 5,500 -180 Descending FlightAware
05:31PM 43.9040 -79.3290 225° Southwest 219 252 5,500 -180 Level FlightAware
05:31PM 43.8900 -79.3490 226° Southwest 206 237 5,400 -180 Descending FlightAware
05:32PM 43.8770 -79.3680 226° Southwest 203 234 5,400 -300 Level FlightAware
05:32PM 43.8640 -79.3870 227° Southwest 198 228 5,200 -960 Descending FlightAware
05:33PM 43.8490 -79.4100 228° Southwest 198 228 4,700 -1,080 Descending FlightAware
05:33PM 43.8360 -79.4280 225° Southwest 194 223 4,400 -1,080 Descending FlightAware
05:33PM 43.8240 -79.4460 227° Southwest 191 220 4,000 -1,080 Descending FlightAware
05:34PM 43.8120 -79.4640 227° Southwest 186 214 3,700 -1,080 Descending FlightAware
05:34PM 43.8000 -79.4810 226° Southwest 181 208 3,300 -1,080 Descending FlightAware
05:34PM 43.7920 -79.4930 227° Southwest 179 206 3,100 -900 Descending FlightAware
05:34PM 43.7800 -79.5100 226° Southwest 174 200 2,800 -900 Descending FlightAware
05:35PM 43.7690 -79.5260 226° Southwest 171 197 2,500 -900 Descending FlightAware
05:35PM 43.7610 -79.5370 225° Southwest 170 196 2,300 -1,020 Descending FlightAware
05:35PM 43.7530 -79.5490 227° Southwest 169 194 2,000 -1,080 Descending FlightAware
05:36PM 43.7430 -79.5650 229° Southwest 164 189 1,700 -660 Descending FlightAware
05:36PM 43.7370 -79.5730 224° Southwest 158 182 1,600 -780 Descending FlightAware
05:36PM 43.7230 -79.5930 226° Southwest 142 163 1,200 -840 Descending FlightAware
05:37PM 43.7150 -79.6050 227° Southwest 137 158 1,000 -720 Descending FlightAware
05:37PM 43.7040 -79.6200 225° Southwest 137 158 700 -780 Descending FlightAware
05:37PM 43.6980 -79.6290 227° Southwest 140 161 500 -300 Descending FlightAware
05:38PM 43.6880 -79.6440 227° Southwest 140 161 500  Level FlightAware